createdAt,value
2022-10-22T00:02:02.990Z,14.20
2022-10-22T00:04:53.925Z,13.23
2022-10-22T00:07:46.627Z,12.63
2022-10-22T00:10:35.751Z,11.80
2022-10-22T00:13:27.365Z,15.07
2022-10-22T00:16:17.710Z,14.00
2022-10-22T00:19:11.201Z,13.00
2022-10-22T00:21:59.761Z,13.70
2022-10-22T00:24:56.545Z,12.80
2022-10-22T00:27:47.963Z,15.00
2022-10-22T00:30:38.092Z,14.00
2022-10-22T00:33:26.742Z,13.93
2022-10-22T00:36:24.270Z,13.10
2022-10-22T00:39:17.900Z,13.40
2022-10-22T00:42:12.643Z,13.60
2022-10-22T00:45:12.895Z,12.87
2022-10-22T00:48:08.565Z,12.50
2022-10-22T00:51:00.095Z,12.70
2022-10-22T00:53:54.103Z,13.23
2022-10-22T00:56:46.281Z,13.00
2022-10-22T00:59:44.019Z,13.70
2022-10-22T01:02:35.336Z,13.17
2022-10-22T01:05:24.976Z,13.33
2022-10-22T01:08:22.818Z,13.17
2022-10-22T01:11:22.064Z,13.40
2022-10-22T01:14:16.109Z,13.60
2022-10-22T01:20:19.792Z,13.90
2022-10-22T01:23:15.676Z,13.27
2022-10-22T01:26:07.072Z,13.47
2022-10-22T01:29:04.119Z,14.27
2022-10-22T01:31:58.485Z,13.30
2022-10-22T01:34:53.927Z,12.33
2022-10-22T01:37:47.857Z,14.30
2022-10-22T01:40:38.201Z,14.57
2022-10-22T01:43:32.828Z,13.70
2022-10-22T01:46:25.137Z,14.33
2022-10-22T01:49:22.837Z,13.20
2022-10-22T01:52:28.280Z,12.83
2022-10-22T01:55:23.796Z,11.33
2022-10-22T01:58:21.400Z,12.87
2022-10-22T02:01:12.940Z,13.43
2022-10-22T02:04:13.413Z,12.60
2022-10-22T02:07:03.685Z,14.80
2022-10-22T02:09:56.894Z,13.50
2022-10-22T02:12:52.281Z,13.70
2022-10-22T02:15:47.269Z,13.47
2022-10-22T02:18:44.411Z,12.53
2022-10-22T02:21:43.077Z,12.20
2022-10-22T02:24:31.785Z,12.20
2022-10-22T02:27:25.963Z,12.93
2022-10-22T02:30:19.278Z,13.00
2022-10-22T02:33:10.441Z,11.20
2022-10-22T02:36:00.133Z,12.10
2022-10-22T02:38:57.905Z,12.93
2022-10-22T02:41:51.324Z,13.07
2022-10-22T02:44:46.659Z,12.73
2022-10-22T02:47:38.385Z,13.03
2022-10-22T02:50:30.796Z,11.33
2022-10-22T02:53:23.060Z,11.53
2022-10-22T02:56:14.144Z,11.83
2022-10-22T02:59:07.664Z,11.60
2022-10-22T03:01:57.434Z,13.63
2022-10-22T03:04:54.597Z,13.03
2022-10-22T03:07:43.612Z,13.30
2022-10-22T03:10:40.090Z,12.50
2022-10-22T03:13:32.596Z,11.50
2022-10-22T03:16:22.720Z,12.87
2022-10-22T03:19:14.325Z,13.10
2022-10-22T03:22:07.337Z,10.53
2022-10-22T03:25:05.933Z,13.20
2022-10-22T03:27:59.703Z,12.90
2022-10-22T03:30:56.537Z,13.03
2022-10-22T03:33:46.535Z,11.90
2022-10-22T03:36:38.223Z,11.70
2022-10-22T03:39:37.541Z,12.40
2022-10-22T03:42:26.402Z,11.90
2022-10-22T03:45:24.006Z,13.00
2022-10-22T03:48:18.063Z,11.70
2022-10-22T03:51:10.924Z,11.93
2022-10-22T03:54:00.656Z,11.40
2022-10-22T03:56:58.669Z,11.80
2022-10-22T03:59:52.780Z,11.40
2022-10-22T04:02:41.262Z,11.90
2022-10-22T04:05:33.003Z,11.63
2022-10-22T04:08:23.131Z,11.17
2022-10-22T04:11:16.440Z,11.83
2022-10-22T04:14:09.318Z,11.20
2022-10-22T04:17:04.693Z,10.73
2022-10-22T04:19:59.054Z,10.90
2022-10-22T04:22:52.469Z,11.20
2022-10-22T04:25:45.916Z,11.30
2022-10-22T04:28:40.258Z,11.40
2022-10-22T04:31:32.349Z,11.93
2022-10-22T04:34:22.763Z,10.87
2022-10-22T04:37:12.905Z,10.40
2022-10-22T04:40:04.645Z,12.50
2022-10-22T04:42:57.472Z,10.67
2022-10-22T04:48:50.819Z,11.00
2022-10-22T04:51:39.362Z,11.10
2022-10-22T04:54:39.756Z,10.80
2022-10-22T04:57:47.077Z,10.03
2022-10-22T05:00:38.512Z,10.73
2022-10-22T05:03:27.063Z,11.23
2022-10-22T05:06:22.167Z,11.40
2022-10-22T05:09:21.793Z,10.97
2022-10-22T05:12:18.953Z,10.30
2022-10-22T05:15:13.009Z,10.50
2022-10-22T05:18:11.613Z,10.97
2022-10-22T05:21:04.466Z,11.87
2022-10-22T05:23:55.936Z,11.27
2022-10-22T05:26:53.900Z,10.90
2022-10-22T05:29:49.114Z,11.80
2022-10-22T05:32:40.392Z,10.50
2022-10-22T05:35:30.307Z,12.27
2022-10-22T05:38:19.371Z,10.70
2022-10-22T05:41:16.039Z,11.30
2022-10-22T05:44:07.133Z,12.50
2022-10-22T05:46:58.094Z,12.77
2022-10-22T05:49:51.539Z,13.07
2022-10-22T05:52:40.275Z,13.60
2022-10-22T05:55:31.492Z,12.67
2022-10-22T05:58:32.202Z,12.10
2022-10-22T06:01:22.156Z,12.33
2022-10-22T06:04:12.605Z,13.87
2022-10-22T06:07:02.763Z,14.90
2022-10-22T06:09:51.338Z,13.67
2022-10-22T06:12:41.331Z,13.60
2022-10-22T06:15:30.114Z,13.53
2022-10-22T06:18:19.030Z,13.10
2022-10-22T06:21:07.877Z,13.60
2022-10-22T06:23:58.838Z,13.53
2022-10-22T06:26:47.315Z,14.43
2022-10-22T06:29:35.974Z,14.40
2022-10-22T06:32:24.436Z,14.00
2022-10-22T06:35:12.909Z,14.30
2022-10-22T06:38:01.394Z,14.20
2022-10-22T06:40:51.174Z,17.40
2022-10-22T06:43:39.760Z,16.70
2022-10-22T06:46:28.208Z,14.00
2022-10-22T06:49:17.149Z,13.77
2022-10-22T06:52:05.641Z,14.77
2022-10-22T06:54:54.141Z,13.40
2022-10-22T06:57:44.298Z,14.40
2022-10-22T07:03:27.274Z,13.10
2022-10-22T07:06:16.384Z,14.50
2022-10-22T07:09:05.026Z,14.10
2022-10-22T07:11:53.590Z,14.43
2022-10-22T07:14:43.551Z,14.33
2022-10-22T07:17:34.939Z,13.03
2022-10-22T07:20:23.487Z,14.67
2022-10-22T07:23:12.014Z,15.37
2022-10-22T07:26:02.392Z,15.60
2022-10-22T07:28:50.933Z,13.60
2022-10-22T07:31:40.761Z,15.20
2022-10-22T07:34:30.480Z,15.43
2022-10-22T07:37:21.822Z,15.20
2022-10-22T07:40:11.047Z,16.20
2022-10-22T07:42:59.553Z,16.17
2022-10-22T07:45:48.054Z,15.17
2022-10-22T07:48:38.086Z,15.93
2022-10-22T07:51:26.584Z,13.93
2022-10-22T07:54:15.071Z,16.70
2022-10-22T07:57:03.550Z,16.07
2022-10-22T07:59:54.098Z,14.50
2022-10-22T08:02:43.024Z,16.63
2022-10-22T08:05:33.117Z,15.87
2022-10-22T08:08:22.690Z,16.50
2022-10-22T08:11:12.499Z,14.70
2022-10-22T08:14:01.103Z,13.83
2022-10-22T08:16:49.608Z,14.50
2022-10-22T08:19:38.192Z,13.60
2022-10-22T08:22:28.194Z,14.97
2022-10-22T08:25:17.993Z,13.30
2022-10-22T08:28:06.649Z,14.10
2022-10-22T08:30:55.130Z,16.70
2022-10-22T08:33:43.754Z,17.17
2022-10-22T08:36:32.286Z,17.43
2022-10-22T08:39:22.112Z,17.20
2022-10-22T08:42:21.770Z,16.50
2022-10-22T08:45:17.003Z,15.77
2022-10-22T08:48:12.158Z,16.80
2022-10-22T08:51:00.692Z,15.87
2022-10-22T08:53:54.914Z,17.23
2022-10-22T08:56:47.225Z,15.47
2022-10-22T08:59:38.936Z,14.97
2022-10-22T09:02:35.561Z,14.27
2022-10-22T09:05:29.775Z,13.87
2022-10-22T09:08:19.473Z,13.73
2022-10-22T09:11:15.506Z,13.47
2022-10-22T09:14:06.459Z,12.13
2022-10-22T09:17:06.868Z,11.60
2022-10-22T09:20:02.328Z,10.23
2022-10-22T09:22:55.375Z,10.70
2022-10-22T09:25:49.105Z,9.90
2022-10-22T09:28:37.681Z,10.17
2022-10-22T09:31:32.173Z,9.90
2022-10-22T09:34:22.254Z,10.20
2022-10-22T09:37:11.993Z,8.70
2022-10-22T09:40:05.407Z,9.10
2022-10-22T09:42:53.867Z,9.30
2022-10-22T09:45:42.671Z,8.00
2022-10-22T09:48:34.936Z,8.27
2022-10-22T09:51:25.328Z,7.80
2022-10-22T09:54:18.837Z,7.10
2022-10-22T09:57:14.069Z,8.00
2022-10-22T10:00:02.531Z,7.40
2022-10-22T10:02:51.005Z,7.23
2022-10-22T10:05:43.997Z,6.40
2022-10-22T10:08:32.575Z,6.10
2022-10-22T10:11:28.959Z,6.23
2022-10-22T10:14:20.881Z,6.20
2022-10-22T10:17:12.750Z,6.83
2022-10-22T10:20:04.967Z,5.53
2022-10-22T10:22:59.878Z,5.40
2022-10-22T10:25:50.618Z,5.47
2022-10-22T10:28:49.965Z,5.33
2022-10-22T10:31:43.505Z,5.23
2022-10-22T10:34:38.923Z,4.33
2022-10-22T10:37:29.301Z,5.40
2022-10-22T10:40:25.723Z,4.93
2022-10-22T10:43:16.991Z,4.10
2022-10-22T10:46:11.514Z,4.20
2022-10-22T10:49:01.491Z,4.30
2022-10-22T10:51:55.223Z,3.87
2022-10-22T10:54:46.940Z,3.47
2022-10-22T10:57:41.709Z,3.23
2022-10-22T11:00:31.031Z,3.70
2022-10-22T11:03:30.696Z,4.17
2022-10-22T11:06:23.171Z,3.80
2022-10-22T11:09:24.915Z,4.37
2022-10-22T11:12:16.745Z,3.70
2022-10-22T11:15:10.163Z,3.67
2022-10-22T11:18:03.145Z,3.73
2022-10-22T11:20:58.245Z,3.00
2022-10-22T11:23:48.400Z,4.00
2022-10-22T11:26:40.597Z,3.23
2022-10-22T11:29:32.894Z,3.17
2022-10-22T11:32:26.392Z,3.33
2022-10-22T11:35:17.165Z,3.13
2022-10-22T11:38:07.135Z,2.77
2022-10-22T11:40:58.268Z,3.00
2022-10-22T11:44:00.656Z,2.10
2022-10-22T11:46:56.412Z,3.30
2022-10-22T11:49:47.048Z,2.80
2022-10-22T11:52:43.161Z,2.60
2022-10-22T11:55:34.222Z,2.20
2022-10-22T11:58:33.333Z,2.60
2022-10-22T12:01:37.139Z,2.47
2022-10-22T12:04:41.195Z,2.50
2022-10-22T12:07:34.324Z,2.70
2022-10-22T12:10:25.581Z,2.30
2022-10-22T12:13:15.207Z,2.13
2022-10-22T12:16:05.673Z,2.33
2022-10-22T12:18:58.444Z,2.40
2022-10-22T12:21:49.752Z,3.13
2022-10-22T12:24:41.023Z,2.85
2022-10-22T12:27:30.243Z,3.00
2022-10-22T12:30:20.106Z,2.90
2022-10-22T12:33:09.325Z,3.10
2022-10-22T12:35:58.692Z,2.50
2022-10-22T12:38:49.857Z,2.73
2022-10-22T12:41:40.826Z,2.77
2022-10-22T12:44:29.320Z,3.10
2022-10-22T12:47:19.153Z,3.23
2022-10-22T12:50:08.011Z,3.20
2022-10-22T12:52:56.844Z,2.97
2022-10-22T12:55:47.390Z,3.60
2022-10-22T12:58:39.391Z,3.57
2022-10-22T13:01:29.464Z,4.00
2022-10-22T13:04:22.373Z,3.70
2022-10-22T13:07:22.357Z,3.60
2022-10-22T13:10:18.750Z,3.80
2022-10-22T13:13:07.291Z,3.80
2022-10-22T13:15:59.410Z,3.90
2022-10-22T13:18:48.316Z,4.00
2022-10-22T13:21:40.964Z,3.50
2022-10-22T13:24:30.385Z,3.70
2022-10-22T13:27:19.281Z,4.00
2022-10-22T13:30:26.947Z,3.13
2022-10-22T13:33:26.148Z,3.73
2022-10-22T13:36:15.726Z,3.40
2022-10-22T13:39:07.009Z,3.47
2022-10-22T13:41:55.476Z,3.20
2022-10-22T13:44:43.976Z,2.80
2022-10-22T13:47:32.495Z,3.50
2022-10-22T13:50:22.724Z,3.03
2022-10-22T13:53:18.835Z,3.67
2022-10-22T13:56:09.626Z,3.13
2022-10-22T13:58:58.173Z,3.33
2022-10-22T14:01:46.782Z,3.70
2022-10-22T14:04:35.763Z,3.97
2022-10-22T14:07:25.608Z,3.90
2022-10-22T14:10:18.702Z,4.33
2022-10-22T14:13:08.247Z,3.63
2022-10-22T14:15:56.766Z,3.63
2022-10-22T14:18:45.397Z,4.00
2022-10-22T14:21:36.885Z,3.80
2022-10-22T14:24:26.772Z,3.47
2022-10-22T14:27:17.806Z,3.40
2022-10-22T14:30:06.875Z,2.70
2022-10-22T14:32:55.501Z,3.67
2022-10-22T14:35:44.564Z,2.97
2022-10-22T14:38:33.109Z,3.20
2022-10-22T14:41:25.550Z,3.83
2022-10-22T14:44:14.864Z,3.43
2022-10-22T14:47:03.459Z,3.30
2022-10-22T14:49:52.027Z,3.73
2022-10-22T14:52:43.014Z,3.47
2022-10-22T14:55:32.017Z,3.23
2022-10-22T14:58:21.939Z,3.20
2022-10-22T15:01:10.608Z,2.93
2022-10-22T15:03:59.141Z,3.50
2022-10-22T15:06:47.694Z,3.20
2022-10-22T15:09:36.262Z,3.40
2022-10-22T15:12:24.877Z,3.33
2022-10-22T15:15:16.477Z,3.53
2022-10-22T15:18:06.770Z,3.30
2022-10-22T15:20:59.012Z,3.43
2022-10-22T15:23:47.483Z,3.47
2022-10-22T15:26:36.024Z,3.07
2022-10-22T15:29:24.744Z,3.73
2022-10-22T15:32:14.582Z,3.30
2022-10-22T15:35:03.424Z,2.93
2022-10-22T15:37:52.649Z,3.10
2022-10-22T15:40:41.139Z,4.07
2022-10-22T15:43:29.651Z,3.67
2022-10-22T15:46:19.145Z,3.60
2022-10-22T15:49:08.976Z,3.40
2022-10-22T15:51:57.761Z,3.40
2022-10-22T15:54:46.291Z,4.10
2022-10-22T15:57:36.761Z,4.20
2022-10-22T16:00:25.389Z,4.00
2022-10-22T16:03:13.856Z,3.60
2022-10-22T16:06:05.218Z,3.70
2022-10-22T16:08:55.332Z,3.80
2022-10-22T16:11:43.934Z,4.30
2022-10-22T16:14:32.483Z,4.27
2022-10-22T16:17:20.997Z,4.03
2022-10-22T16:23:06.264Z,4.83
2022-10-22T16:25:54.781Z,10.83
2022-10-22T16:28:43.788Z,5.00
2022-10-22T16:31:35.032Z,5.57
2022-10-22T16:34:25.046Z,9.27
2022-10-22T16:37:13.533Z,5.43
2022-10-22T16:40:07.384Z,5.03
2022-10-22T16:42:56.895Z,5.33
2022-10-22T16:45:48.864Z,5.03
2022-10-22T16:48:40.412Z,4.60
2022-10-22T16:51:29.707Z,4.63
2022-10-22T16:54:21.698Z,6.70
2022-10-22T16:57:15.210Z,6.23
2022-10-22T17:00:06.558Z,5.60
2022-10-22T17:02:55.397Z,5.83
2022-10-22T17:05:43.957Z,5.80
2022-10-22T17:08:34.166Z,6.20
2022-10-22T17:11:23.911Z,7.63
2022-10-22T17:14:18.173Z,6.93
2022-10-22T17:17:06.648Z,6.40
2022-10-22T17:19:55.167Z,6.20
2022-10-22T17:22:43.903Z,6.87
2022-10-22T17:25:37.585Z,7.13
2022-10-22T17:28:26.195Z,6.70
2022-10-22T17:31:20.919Z,6.67
2022-10-22T17:34:10.172Z,7.80
2022-10-22T17:37:00.125Z,9.33
2022-10-22T17:39:48.634Z,8.20
2022-10-22T17:42:37.132Z,7.83
2022-10-22T17:45:25.701Z,8.13
2022-10-22T17:48:15.537Z,8.17
2022-10-22T17:51:07.309Z,7.63
2022-10-22T17:53:55.834Z,8.23
2022-10-22T17:56:44.665Z,8.30
2022-10-22T17:59:33.365Z,8.80
2022-10-22T18:02:21.887Z,9.07
2022-10-22T18:05:13.529Z,8.00
2022-10-22T18:08:05.637Z,7.60
2022-10-22T18:10:56.189Z,8.07
2022-10-22T18:13:45.171Z,7.87
2022-10-22T18:16:33.644Z,8.03
2022-10-22T18:19:24.552Z,7.97
2022-10-22T18:22:15.875Z,8.50
2022-10-22T18:25:04.440Z,8.27
2022-10-22T18:27:53.860Z,9.00
2022-10-22T18:30:42.370Z,9.10
2022-10-22T18:33:30.953Z,11.10
2022-10-22T18:36:20.218Z,10.13
2022-10-22T18:39:10.165Z,10.97
2022-10-22T18:41:58.765Z,12.20
2022-10-22T18:44:47.351Z,14.87
2022-10-22T18:47:35.911Z,13.53
2022-10-22T18:50:24.472Z,12.63
2022-10-22T18:53:14.068Z,12.23
2022-10-22T18:56:05.883Z,10.83
2022-10-22T18:58:54.631Z,9.90
2022-10-22T19:01:43.092Z,10.77
2022-10-22T19:04:36.587Z,10.10
2022-10-22T19:07:25.148Z,9.27
2022-10-22T19:10:13.983Z,9.00
2022-10-22T19:13:03.859Z,9.50
2022-10-22T19:15:53.404Z,12.10
2022-10-22T19:18:42.105Z,10.30
2022-10-22T19:21:31.039Z,10.47
2022-10-22T19:24:20.238Z,9.77
2022-10-22T19:27:11.586Z,10.70
2022-10-22T19:30:01.438Z,9.63
2022-10-22T19:32:49.947Z,9.10
2022-10-22T19:35:44.868Z,9.53
2022-10-22T19:38:36.147Z,9.70
2022-10-22T19:41:25.547Z,9.60
2022-10-22T19:44:19.755Z,9.00
2022-10-22T19:47:21.758Z,9.60
2022-10-22T19:50:14.426Z,9.60
2022-10-22T19:53:07.106Z,9.40
2022-10-22T19:55:55.642Z,8.23
2022-10-22T19:58:44.187Z,9.17
2022-10-22T20:01:33.097Z,9.13
2022-10-22T20:04:27.938Z,8.30
2022-10-22T20:07:24.200Z,8.60
2022-10-22T20:10:19.135Z,8.67
2022-10-22T20:13:11.827Z,8.60
2022-10-22T20:16:04.775Z,8.43
2022-10-22T20:18:55.602Z,7.90
2022-10-22T20:21:51.119Z,9.20
2022-10-22T20:24:42.413Z,8.67
2022-10-22T20:27:30.922Z,8.50
2022-10-22T20:30:26.379Z,9.07
2022-10-22T20:33:21.018Z,9.37
2022-10-22T20:36:14.649Z,9.53
2022-10-22T20:39:06.541Z,8.50
2022-10-22T20:41:59.311Z,8.40
2022-10-22T20:44:47.818Z,8.47
2022-10-22T20:47:50.762Z,8.67
2022-10-22T20:50:49.105Z,8.80
2022-10-22T20:53:39.345Z,9.17
2022-10-22T20:56:29.850Z,8.70
2022-10-22T20:59:23.860Z,8.87
2022-10-22T21:02:12.588Z,7.80
2022-10-22T21:05:01.163Z,8.40
2022-10-22T21:07:52.339Z,8.23
2022-10-22T21:10:46.977Z,8.50
2022-10-22T21:13:36.968Z,7.77
2022-10-22T21:16:28.985Z,8.13
2022-10-22T21:19:17.809Z,8.30
2022-10-22T21:22:07.558Z,8.67
2022-10-22T21:25:02.678Z,8.37
2022-10-22T21:27:54.126Z,9.40
2022-10-22T21:30:49.478Z,8.70
2022-10-22T21:33:40.273Z,9.13
2022-10-22T21:36:36.403Z,9.20
2022-10-22T21:39:27.984Z,10.23
2022-10-22T21:42:16.723Z,8.80
2022-10-22T21:45:13.121Z,8.53
2022-10-22T21:48:06.123Z,8.37
2022-10-22T21:50:54.588Z,9.20
2022-10-22T21:53:44.766Z,8.27
2022-10-22T21:56:38.494Z,9.33
2022-10-22T21:59:32.030Z,8.73
2022-10-22T22:02:29.085Z,8.90
2022-10-22T22:05:21.359Z,8.60
2022-10-22T22:08:11.788Z,9.27
2022-10-22T22:11:07.481Z,9.40
2022-10-22T22:13:56.637Z,9.60
2022-10-22T22:16:46.360Z,9.40
2022-10-22T22:19:45.214Z,8.90
2022-10-22T22:22:36.444Z,9.23
2022-10-22T22:25:24.940Z,10.33
2022-10-22T22:28:20.364Z,10.50
2022-10-22T22:31:20.252Z,9.87
2022-10-22T22:34:10.844Z,10.03
2022-10-22T22:37:03.279Z,9.73
2022-10-22T22:39:56.596Z,10.23
2022-10-22T22:42:45.096Z,11.57
2022-10-22T22:45:40.580Z,10.30
2022-10-22T22:48:31.610Z,10.53
2022-10-22T22:51:20.312Z,10.60
2022-10-22T22:54:08.805Z,10.50
2022-10-22T22:57:01.645Z,11.03
2022-10-22T22:59:56.005Z,12.07
2022-10-22T23:02:44.803Z,10.87
2022-10-22T23:05:36.087Z,11.93
2022-10-22T23:08:25.842Z,11.00
2022-10-22T23:11:19.517Z,11.80
2022-10-22T23:14:16.301Z,11.73
2022-10-22T23:17:06.134Z,11.67
2022-10-22T23:19:55.515Z,11.47
2022-10-22T23:22:44.174Z,10.97
2022-10-22T23:25:36.148Z,11.00
2022-10-22T23:28:32.798Z,11.50
2022-10-22T23:31:34.743Z,11.43
2022-10-22T23:34:24.100Z,11.17
2022-10-22T23:37:17.448Z,12.03
2022-10-22T23:40:09.356Z,11.50
2022-10-22T23:42:57.811Z,11.80
2022-10-22T23:45:46.269Z,11.87
2022-10-22T23:48:36.142Z,11.80
2022-10-22T23:51:26.845Z,11.43
2022-10-22T23:54:16.381Z,11.33
2022-10-22T23:57:04.878Z,12.97
2022-10-22T23:59:56.207Z,12.50
